Time;durP1;ratioP1;P1;durP2;ratioP2;P2;SDS_P1;SDS_P2;PMS_P1;PMS_P2;Temp;Humidity;BMP_temperature;BMP_pressure;BME280_temperature;BME280_humidity;BME280_pressure;Samples;Min_cycle;Max_cycle;Signal;HPM_P1;HPM_P2
2022/04/26 03:45:29;;;;;;;;;;;13.70;57.20;;;;;;20918114;28;19982;-62
2022/04/26 03:55:31;;;;;;;;;;;13.60;57.20;;;;;;20919123;28;19975;-58
2022/04/26 04:05:34;;;;;;;;;;;13.50;57.50;;;;;;20918264;28;19920;-57
2022/04/26 04:15:37;;;;;;;;;;;13.30;57.40;;;;;;20917815;28;19967;-59
2022/04/26 04:25:41;;;;;;;;;;;13.30;57.70;;;;;;20916580;28;19920;-58
2022/04/26 04:35:43;;;;;;;;;;;13.20;58.20;;;;;;20915957;28;19927;-58
2022/04/26 04:45:44;;;;;;;;;;;13.20;58.90;;;;;;20914565;28;19925;-65
2022/04/26 04:55:47;;;;;;;;;;;13.20;59.10;;;;;;20913791;28;19921;-61
2022/04/26 05:05:48;;;;;;;;;;;13.10;59.50;;;;;;20895558;28;19932;-64
2022/04/26 05:15:52;;;;;;;;;;;13.00;60.50;;;;;;20912896;28;20015;-58
2022/04/26 05:25:54;;;;;;;;;;;13.00;60.70;;;;;;20912110;28;19921;-59
2022/04/26 05:35:56;;;;;;;;;;;13.00;61.20;;;;;;20912025;28;20409;-58
2022/04/26 05:45:58;;;;;;;;;;;13.00;60.90;;;;;;20910566;28;19928;-59
2022/04/26 05:55:59;;;;;;;;;;;13.00;61.50;;;;;;20912058;28;19925;-58
2022/04/26 06:06:01;;;;;;;;;;;13.20;60.60;;;;;;20920838;28;19927;-64
2022/04/26 06:16:04;;;;;;;;;;;13.20;60.90;;;;;;20925801;28;19920;-58
2022/04/26 06:26:06;;;;;;;;;;;13.70;59.40;;;;;;20925593;28;19928;-58
2022/04/26 06:36:07;;;;;;;;;;;14.10;57.50;;;;;;20925827;28;19994;-58
2022/04/26 06:46:09;;;;;;;;;;;14.10;58.30;;;;;;20923007;28;19920;-60
2022/04/26 06:56:10;;;;;;;;;;;13.90;59.40;;;;;;20922990;28;19921;-59
2022/04/26 07:06:12;;;;;;;;;;;13.90;59.20;;;;;;20921607;28;19920;-58
2022/04/26 07:16:14;;;;;;;;;;;14.00;58.80;;;;;;20921571;28;19920;-59
2022/04/26 07:26:16;;;;;;;;;;;;;;;;;;20920785;28;20023;-58
2022/04/26 07:36:19;;;;;;;;;;;14.60;54.10;;;;;;20919906;28;19928;-58
2022/04/26 07:46:21;;;;;;;;;;;15.20;52.30;;;;;;20918206;28;20382;-59
2022/04/26 07:56:22;;;;;;;;;;;15.40;51.50;;;;;;20900258;28;19974;-59
2022/04/26 08:06:24;;;;;;;;;;;15.90;49.90;;;;;;20917304;28;19921;-60
2022/04/26 08:16:26;;;;;;;;;;;16.20;49.20;;;;;;20916776;28;19925;-59
2022/04/26 08:36:47;;;;;;;;;;;16.70;49.30;;;;;;20956367;28;20272;-61
2022/04/26 08:57:09;;;;;;;;;;;17.00;47.10;;;;;;20955649;28;19921;-59
2022/04/26 09:07:12;;;;;;;;;;;17.50;46.30;;;;;;20959722;28;19920;-66
2022/04/26 09:17:17;;;;;;;;;;;17.80;45.80;;;;;;20941292;28;19974;-57
2022/04/26 09:27:20;;;;;;;;;;;17.80;46.20;;;;;;20945351;28;19925;-62
2022/04/26 09:37:22;;;;;;;;;;;17.90;47.30;;;;;;20950510;28;19921;-60
2022/04/26 09:47:40;;;;;;;;;;;18.10;46.60;;;;;;20968972;28;19921;-65
2022/04/26 09:57:44;;;;;;;;;;;18.20;46.70;;;;;;20976291;28;20019;-62
2022/04/26 10:07:47;;;;;;;;;;;18.60;46.90;;;;;;20949865;28;19920;-70
2022/04/26 10:17:49;;;;;;;;;;;18.70;44.90;;;;;;20929262;28;19921;-66
2022/04/26 10:28:10;;;;;;;;;;;19.10;44.30;;;;;;20925750;28;20370;-68
2022/04/26 10:38:16;;;;;;;;;;;19.00;43.60;;;;;;20954100;28;19920;-70
2022/04/26 10:48:26;;;;;;;;;;;19.20;42.60;;;;;;21006281;28;19920;-64
2022/04/26 10:58:28;;;;;;;;;;;19.20;43.50;;;;;;20947672;28;19928;-65
2022/04/26 11:08:29;;;;;;;;;;;19.50;42.50;;;;;;21005587;28;19989;-72
2022/04/26 11:18:33;;;;;;;;;;;19.90;42.90;;;;;;21006763;28;20290;-62
2022/04/26 11:28:34;;;;;;;;;;;20.20;41.70;;;;;;20981645;28;20290;-65
2022/04/26 11:38:35;;;;;;;;;;;20.20;41.90;;;;;;20923793;28;20011;-62
2022/04/26 11:48:39;;;;;;;;;;;20.50;40.10;;;;;;20918493;28;19999;-67
2022/04/26 11:58:41;;;;;;;;;;;20.50;39.90;;;;;;20947847;28;20422;-66
2022/04/26 12:08:46;;;;;;;;;;;20.50;40.50;;;;;;20999833;28;19927;-64
2022/04/26 12:18:49;;;;;;;;;;;20.90;39.90;;;;;;20999762;28;20394;-64
2022/04/26 12:28:51;;;;;;;;;;;21.10;40.10;;;;;;20999255;28;20275;-63
2022/04/26 12:38:53;;;;;;;;;;;20.90;40.10;;;;;;20997476;28;20004;-73
2022/04/26 12:59:17;;;;;;;;;;;;;;;;;;20997926;28;19920;-62
2022/04/26 13:09:18;;;;;;;;;;;;;;;;;;20997410;28;19977;-65
2022/04/26 13:19:21;;;;;;;;;;;;;;;;;;20996189;28;20007;-69
2022/04/26 13:29:23;;;;;;;;;;;;;;;;;;20995948;28;19928;-63
2022/04/26 13:39:25;;;;;;;;;;;;;;;;;;20996153;28;20007;-73
2022/04/26 13:49:28;;;;;;;;;;;;;;;;;;20996322;28;19920;-63
2022/04/26 13:59:30;;;;;;;;;;;;;;;;;;20995410;28;19921;-73
2022/04/26 14:09:32;;;;;;;;;;;;;;;;;;20994823;28;19920;-74
2022/04/26 14:29:55;;;;;;;;;;;;;;;;;;21007427;28;20015;-64
2022/04/26 14:39:57;;;;;;;;;;;;;;;;;;21007095;28;19947;-69
2022/04/26 14:49:59;;;;;;;;;;;;;;;;;;21006627;28;19971;-63
2022/04/26 15:00:01;;;;;;;;;;;;;;;;;;21006429;28;20382;-69
2022/04/26 15:10:03;;;;;;;;;;;;;;;;;;21005512;28;20370;-63
2022/04/26 15:20:05;;;;;;;;;;;;;;;;;;21004951;28;19983;-62
2022/04/26 15:30:07;;;;;;;;;;;;;;;;;;21004485;28;19924;-63
2022/04/26 15:40:09;;;;;;;;;;;;;;;;;;21001509;28;19920;-65
2022/04/26 15:50:12;;;;;;;;;;;;;;;;;;21001583;28;19921;-64
2022/04/26 16:00:14;;;;;;;;;;;;;;;;;;21001690;28;19921;-62
2022/04/26 16:20:37;;;;;;;;;;;19.00;56.50;;;;;;20999683;28;20380;-63
2022/04/26 16:30:40;;;;;;;;;;;18.50;59.70;;;;;;21000018;28;20340;-63
2022/04/26 16:40:41;;;;;;;;;;;18.40;58.80;;;;;;20997880;28;20007;-62
2022/04/26 16:50:43;;;;;;;;;;;18.00;63.40;;;;;;20996472;28;20414;-63
2022/04/26 17:00:46;;;;;;;;;;;17.60;61.50;;;;;;20996338;28;19920;-64
2022/04/26 17:10:50;;;;;;;;;;;17.70;62.00;;;;;;20996346;28;19943;-64
2022/04/26 17:20:52;;;;;;;;;;;17.70;61.70;;;;;;20982685;28;20011;-61
2022/04/26 17:30:54;;;;;;;;;;;17.80;59.10;;;;;;20928144;28;19920;-62
2022/04/26 17:40:55;;;;;;;;;;;18.20;60.50;;;;;;20934340;28;19920;-64
2022/04/26 17:50:57;;;;;;;;;;;18.20;62.00;;;;;;20910994;28;20410;-62
2022/04/26 18:00:59;;;;;;;;;;;17.90;63.60;;;;;;20919498;28;19968;-61
2022/04/26 18:11:00;;;;;;;;;;;17.90;63.80;;;;;;20927161;28;19931;-62
2022/04/26 18:21:02;;;;;;;;;;;17.50;65.50;;;;;;20941315;28;20011;-61
2022/04/26 18:31:03;;;;;;;;;;;17.10;68.50;;;;;;20964938;28;19956;-61
2022/04/26 18:41:08;;;;;;;;;;;16.80;68.00;;;;;;20970043;28;19956;-72
2022/04/26 18:51:10;;;;;;;;;;;16.90;67.90;;;;;;20961492;28;20343;-64
2022/04/26 19:01:11;;;;;;;;;;;16.70;69.10;;;;;;20961136;28;19927;-62
2022/04/26 19:21:32;;;;;;;;;;;16.80;68.90;;;;;;21004036;28;20325;-63
2022/04/26 19:31:34;;;;;;;;;;;16.60;69.70;;;;;;20984414;28;19935;-61
2022/04/26 19:41:36;;;;;;;;;;;16.50;71.80;;;;;;21001591;28;19944;-64
2022/04/26 19:51:40;;;;;;;;;;;16.50;71.00;;;;;;21001633;28;19928;-62
2022/04/26 20:01:42;;;;;;;;;;;16.40;72.80;;;;;;21000769;28;19927;-71
2022/04/26 20:11:44;;;;;;;;;;;16.30;73.20;;;;;;21000802;28;20019;-62
2022/04/26 20:21:46;;;;;;;;;;;16.30;69.90;;;;;;20998190;28;20007;-62
2022/04/26 20:31:47;;;;;;;;;;;16.30;69.30;;;;;;20998695;28;19920;-62
2022/04/26 20:41:50;;;;;;;;;;;;;;;;;;20997486;28;19920;-62
2022/04/26 20:51:52;;;;;;;;;;;;;;;;;;20996838;28;20044;-62
2022/04/26 21:01:54;;;;;;;;;;;;;;;;;;20996214;28;19934;-64
2022/04/26 21:11:56;;;;;;;;;;;;;;;;;;20995609;28;19920;-62
2022/04/26 21:21:58;;;;;;;;;;;;;;;;;;20996518;28;19924;-63
2022/04/26 21:31:59;;;;;;;;;;;;;;;;;;20999764;28;19965;-64
2022/04/26 21:42:02;;;;;;;;;;;;;;;;;;21012593;28;19945;-62
2022/04/26 21:52:03;;;;;;;;;;;;;;;;;;21011422;28;19965;-63
2022/04/26 22:02:05;;;;;;;;;;;;;;;;;;21010627;28;19962;-62
2022/04/26 22:12:08;;;;;;;;;;;;;;;;;;21011260;28;19924;-63
2022/04/26 22:22:10;;;;;;;;;;;;;;;;;;21009348;28;19920;-61
2022/04/26 22:32:13;;;;;;;;;;;;;;;;;;21008252;28;19920;-60
2022/04/26 22:42:15;;;;;;;;;;;;;;;;;;21005901;28;19924;-61
2022/04/26 22:52:17;;;;;;;;;;;;;;;;;;21006569;28;19920;-63
2022/04/26 23:02:18;;;;;;;;;;;;;;;;;;20988525;28;19928;-61
2022/04/26 23:12:20;;;;;;;;;;;;;;;;;;21005032;28;20027;-62
2022/04/26 23:22:21;;;;;;;;;;;;;;;;;;21003983;28;20020;-61
2022/04/26 23:32:23;;;;;;;;;;;;;;;;;;21003414;28;19986;-62
2022/04/26 23:42:24;;;;;;;;;;;;;;;;;;21002477;28;20405;-61
